createdAt,value
2018-11-13T00:00:25.717Z,101292.95
2018-11-13T00:02:55.158Z,101288.64
2018-11-13T00:05:24.471Z,101283.14
2018-11-13T00:07:53.510Z,101293.32
2018-11-13T00:10:22.536Z,101288.95
2018-11-13T00:12:51.549Z,101292.47
2018-11-13T00:15:20.502Z,101282.66
2018-11-13T00:17:49.437Z,101285.42
2018-11-13T00:20:19.320Z,101283.89
2018-11-13T00:22:48.270Z,101273.72
2018-11-13T00:25:18.331Z,101275.52
2018-11-13T00:27:47.310Z,101273.81
2018-11-13T00:30:17.902Z,101274.77
2018-11-13T00:32:46.826Z,101270.30
2018-11-13T00:35:16.561Z,101274.77
2018-11-13T00:37:46.187Z,101276.48
2018-11-13T00:40:15.436Z,101282.62
2018-11-13T00:42:45.127Z,101281.48
2018-11-13T00:45:14.089Z,101284.25
2018-11-13T00:47:43.068Z,101288.73
2018-11-13T00:50:13.778Z,101285.20
2018-11-13T00:52:43.729Z,101292.92
2018-11-13T00:55:12.774Z,101287.07
2018-11-13T00:57:42.758Z,101295.21
2018-11-13T01:00:14.715Z,101291.89
2018-11-13T01:02:43.878Z,101288.13
2018-11-13T01:05:14.442Z,101286.04
2018-11-13T01:07:44.507Z,101283.57
2018-11-13T01:10:14.378Z,101290.42
2018-11-13T01:12:44.470Z,101296.45
2018-11-13T01:15:14.559Z,101298.84
2018-11-13T01:17:44.391Z,101297.36
2018-11-13T01:20:13.932Z,101291.09
2018-11-13T01:22:42.946Z,101298.13
2018-11-13T01:25:13.107Z,101293.37
2018-11-13T01:27:42.599Z,101292.27
2018-11-13T01:30:12.641Z,101292.55
2018-11-13T01:32:42.391Z,101303.39
2018-11-13T01:35:12.933Z,101301.39
2018-11-13T01:37:41.982Z,101304.63
2018-11-13T01:40:13.190Z,101303.44
2018-11-13T01:42:42.450Z,101311.77
2018-11-13T01:45:12.787Z,101309.96
2018-11-13T01:47:41.871Z,101313.28
2018-11-13T01:50:11.367Z,101308.25
2018-11-13T01:52:40.302Z,101317.43
2018-11-13T01:55:11.354Z,101316.95
2018-11-13T01:57:40.307Z,101317.43
2018-11-13T02:00:14.743Z,101310.20
2018-11-13T02:02:44.330Z,101315.85
2018-11-13T02:05:13.283Z,101315.47
2018-11-13T02:07:42.254Z,101320.70
2018-11-13T02:10:11.181Z,101311.37
2018-11-13T02:12:40.155Z,101317.75
2018-11-13T02:15:09.602Z,101323.38
2018-11-13T02:17:38.681Z,101328.16
2018-11-13T02:20:09.922Z,101327.59
2018-11-13T02:22:39.221Z,101332.19
2018-11-13T02:25:10.027Z,101330.25
2018-11-13T02:27:39.150Z,101332.28
2018-11-13T02:30:09.728Z,101334.72
2018-11-13T02:32:38.930Z,101333.39
2018-11-13T02:35:08.868Z,101331.11
2018-11-13T02:37:37.873Z,101332.06
2018-11-13T02:40:06.916Z,101331.87
2018-11-13T02:42:36.789Z,101332.34
2018-11-13T02:45:07.985Z,101328.95
2018-11-13T02:47:36.970Z,101320.63
2018-11-13T02:50:07.387Z,101318.98
2018-11-13T02:52:36.583Z,101324.39
2018-11-13T02:55:05.536Z,101321.41
2018-11-13T02:57:34.630Z,101323.03
2018-11-13T03:00:03.659Z,101331.20
2018-11-13T03:02:32.621Z,101330.25
2018-11-13T03:05:01.587Z,101324.17
2018-11-13T03:07:30.538Z,101323.79
2018-11-13T03:09:59.495Z,101328.16
2018-11-13T03:12:28.470Z,101329.11
2018-11-13T03:14:57.482Z,101321.64
2018-11-13T03:17:26.403Z,101319.61
2018-11-13T03:19:55.314Z,101331.33
2018-11-13T03:22:24.280Z,101341.22
2018-11-13T03:24:53.306Z,101337.89
2018-11-13T03:27:22.309Z,101339.06
2018-11-13T03:29:51.261Z,101338.12
2018-11-13T03:32:20.352Z,101340.59
2018-11-13T03:34:49.290Z,101345.37
2018-11-13T03:37:18.244Z,101344.80
2018-11-13T03:39:47.202Z,101339.66
2018-11-13T03:42:16.219Z,101337.98
2018-11-13T03:44:45.168Z,101341.22
2018-11-13T03:47:14.126Z,101338.36
2018-11-13T03:49:43.103Z,101346.91
2018-11-13T03:52:12.112Z,101340.56
2018-11-13T03:54:41.091Z,101342.47
2018-11-13T03:57:10.043Z,101344.27
2018-11-13T03:59:39.067Z,101342.55
2018-11-13T04:02:07.986Z,101338.19
2018-11-13T04:04:36.938Z,101336.48
2018-11-13T04:07:06.104Z,101335.06
2018-11-13T04:09:35.072Z,101342.44
2018-11-13T04:12:04.006Z,101336.94
2018-11-13T04:14:32.948Z,101335.51
2018-11-13T04:17:02.007Z,101336.66
2018-11-13T04:19:30.937Z,101333.61
2018-11-13T04:22:03.090Z,101336.66
2018-11-13T04:24:32.147Z,101333.23
2018-11-13T04:27:01.751Z,101331.33
2018-11-13T04:29:31.034Z,101335.51
2018-11-13T04:32:00.028Z,101339.22
2018-11-13T04:34:28.984Z,101340.55
2018-11-13T04:36:57.932Z,101344.63
2018-11-13T04:39:26.923Z,101345.95
2018-11-13T04:41:55.861Z,101347.12
2018-11-13T04:44:24.786Z,101350.35
2018-11-13T04:46:53.738Z,101347.41
2018-11-13T04:49:22.730Z,101349.97
2018-11-13T04:51:51.694Z,101348.55
2018-11-13T04:54:20.630Z,101357.77
2018-11-13T04:56:49.594Z,101357.77
2018-11-13T04:59:18.535Z,101355.29
2018-11-13T05:01:47.537Z,101362.89
2018-11-13T05:04:16.490Z,101369.35
2018-11-13T05:06:45.459Z,101377.97
2018-11-13T05:09:14.561Z,101379.21
2018-11-13T05:11:43.497Z,101380.17
2018-11-13T05:14:12.680Z,101382.25
2018-11-13T05:16:41.622Z,101385.09
2018-11-13T05:19:10.622Z,101396.50
2018-11-13T05:21:39.655Z,101393.47
2018-11-13T05:24:08.618Z,101388.70
2018-11-13T05:26:37.600Z,101394.00
2018-11-13T05:29:06.576Z,101393.23
2018-11-13T05:31:35.545Z,101405.57
2018-11-13T05:34:04.495Z,101405.55
2018-11-13T05:36:33.463Z,101403.42
2018-11-13T05:39:02.417Z,101401.08
2018-11-13T05:41:31.445Z,101405.84
2018-11-13T05:44:00.392Z,101409.66
2018-11-13T05:46:29.328Z,101415.69
2018-11-13T05:48:58.287Z,101409.34
2018-11-13T05:51:27.268Z,101407.95
2018-11-13T05:53:56.235Z,101420.45
2018-11-13T05:56:26.015Z,101414.38
2018-11-13T05:58:55.001Z,101418.31
2018-11-13T06:01:23.962Z,101423.86
2018-11-13T06:03:52.993Z,101426.19
2018-11-13T06:06:21.948Z,101425.12
2018-11-13T06:08:50.909Z,101429.70
2018-11-13T06:11:19.887Z,101430.13
2018-11-13T06:13:48.859Z,101427.10
2018-11-13T06:16:17.817Z,101432.10
2018-11-13T06:18:46.790Z,101431.38
2018-11-13T06:21:15.787Z,101435.23
2018-11-13T06:23:44.759Z,101437.41
2018-11-13T06:26:13.718Z,101432.69
2018-11-13T06:28:42.668Z,101428.88
2018-11-13T06:31:11.594Z,101432.91
2018-11-13T06:33:40.558Z,101433.27
2018-11-13T06:36:09.527Z,101431.77
2018-11-13T06:38:38.490Z,101431.16
2018-11-13T06:41:07.516Z,101424.45
2018-11-13T06:43:36.495Z,101433.04
2018-11-13T06:46:05.812Z,101431.92
2018-11-13T06:48:34.815Z,101435.53
2018-11-13T06:51:04.100Z,101428.19
2018-11-13T06:53:41.499Z,101428.33
2018-11-13T06:56:10.463Z,101428.53
2018-11-13T06:58:39.464Z,101428.75
2018-11-13T07:01:08.450Z,101424.82
2018-11-13T07:03:37.387Z,101429.93
2018-11-13T07:06:06.442Z,101431.95
2018-11-13T07:08:35.414Z,101431.33
2018-11-13T07:11:04.421Z,101426.66
2018-11-13T07:13:33.414Z,101431.00
2018-11-13T07:16:02.365Z,101431.88
2018-11-13T07:18:31.360Z,101430.13
2018-11-13T07:21:00.313Z,101432.31
2018-11-13T07:23:29.256Z,101438.23
2018-11-13T07:25:58.186Z,101434.59
2018-11-13T07:28:27.229Z,101433.84
2018-11-13T07:30:56.187Z,101429.92
2018-11-13T07:33:25.163Z,101433.59
2018-11-13T07:35:54.112Z,101433.41
2018-11-13T07:38:23.079Z,101433.09
2018-11-13T07:40:52.090Z,101429.22
2018-11-13T07:43:20.983Z,101431.42
2018-11-13T07:45:49.939Z,101430.90
2018-11-13T07:48:18.888Z,101434.28
2018-11-13T07:50:47.934Z,101426.52
2018-11-13T07:53:16.880Z,101429.57
2018-11-13T07:55:45.839Z,101428.78
2018-11-13T07:58:14.829Z,101429.93
2018-11-13T08:00:43.758Z,101439.98
2018-11-13T08:03:43.770Z,101436.23
2018-11-13T08:06:12.764Z,101429.62
2018-11-13T08:08:41.782Z,101431.73
2018-11-13T08:11:10.733Z,101429.10
2018-11-13T08:13:39.869Z,101428.41
2018-11-13T08:16:08.743Z,101431.50
2018-11-13T08:18:37.700Z,101428.66
2018-11-13T08:21:06.656Z,101425.59
2018-11-13T08:23:35.701Z,101419.51
2018-11-13T08:26:04.647Z,101429.93
2018-11-13T08:28:33.682Z,101422.35
2018-11-13T08:31:02.692Z,101420.87
2018-11-13T08:33:31.642Z,101423.22
2018-11-13T08:36:00.616Z,101426.70
2018-11-13T08:38:29.614Z,101421.88
2018-11-13T08:40:58.536Z,101424.05
2018-11-13T08:43:27.510Z,101419.07
2018-11-13T08:45:56.523Z,101420.47
2018-11-13T08:48:25.550Z,101422.11
2018-11-13T08:50:54.532Z,101423.91
2018-11-13T08:53:23.485Z,101416.80
2018-11-13T08:55:52.436Z,101418.88
2018-11-13T08:58:21.402Z,101414.55
2018-11-13T09:00:50.480Z,101408.14
2018-11-13T09:03:19.607Z,101412.13
2018-11-13T09:05:48.571Z,101406.41
2018-11-13T09:08:17.524Z,101407.29
2018-11-13T09:10:46.510Z,101412.51
2018-11-13T09:13:15.478Z,101410.53
2018-11-13T09:15:44.445Z,101400.08
2018-11-13T09:18:13.411Z,101403.19
2018-11-13T09:20:42.367Z,101396.06
2018-11-13T09:23:11.339Z,101395.22
2018-11-13T09:25:40.324Z,101390.98
2018-11-13T09:28:09.299Z,101386.41
2018-11-13T09:30:38.435Z,101384.39
2018-11-13T09:33:07.342Z,101385.70
2018-11-13T09:35:36.270Z,101383.33
2018-11-13T09:38:05.220Z,101375.64
2018-11-13T09:40:34.188Z,101365.98
2018-11-13T09:43:03.210Z,101369.97
2018-11-13T09:45:32.197Z,101365.92
2018-11-13T09:48:01.193Z,101362.97
2018-11-13T09:50:30.153Z,101359.30
2018-11-13T09:52:59.099Z,101355.82
2018-11-13T09:55:28.105Z,101351.37
2018-11-13T09:57:57.115Z,101348.98
2018-11-13T10:00:27.125Z,101348.32
2018-11-13T10:02:58.922Z,101348.20
2018-11-13T10:05:27.372Z,101345.94
2018-11-13T10:07:56.670Z,101343.48
2018-11-13T10:10:26.299Z,101338.47
2018-11-13T10:12:55.386Z,101335.10
2018-11-13T10:15:25.777Z,101331.34
2018-11-13T10:17:54.813Z,101330.28
2018-11-13T10:20:23.746Z,101323.52
2018-11-13T10:22:53.957Z,101314.95
2018-11-13T10:25:22.908Z,101306.62
2018-11-13T10:27:51.929Z,101305.20
2018-11-13T10:30:22.229Z,101302.07
2018-11-13T10:32:52.037Z,101302.06
2018-11-13T10:35:22.333Z,101304.70
2018-11-13T10:37:51.367Z,101298.58
2018-11-13T10:40:21.316Z,101299.14
2018-11-13T10:42:50.795Z,101301.63
2018-11-13T10:45:21.637Z,101287.38
2018-11-13T10:47:50.581Z,101288.41
2018-11-13T10:50:21.476Z,101289.80
2018-11-13T10:52:50.398Z,101284.28
2018-11-13T10:55:19.410Z,101279.99
2018-11-13T10:57:48.357Z,101271.67
2018-11-13T11:00:22.758Z,101267.75
2018-11-13T11:02:56.737Z,101265.24
2018-11-13T11:05:26.975Z,101268.18
2018-11-13T11:07:56.332Z,101263.56
2018-11-13T11:10:25.654Z,101258.70
2018-11-13T11:12:54.741Z,101256.38
2018-11-13T11:15:23.820Z,101220.45
2018-11-13T11:17:52.817Z,101251.15
2018-11-13T11:20:21.794Z,101250.95
2018-11-13T11:22:50.853Z,101251.58
2018-11-13T11:25:19.911Z,101244.52
2018-11-13T11:27:48.847Z,101241.80
2018-11-13T11:30:17.769Z,101236.19
2018-11-13T11:32:46.733Z,101234.09
2018-11-13T11:35:15.707Z,101227.86
2018-11-13T11:37:44.709Z,101226.77
2018-11-13T11:40:13.815Z,101223.22
2018-11-13T11:42:42.851Z,101222.67
2018-11-13T11:45:13.307Z,101211.41
2018-11-13T11:47:42.292Z,101215.42
2018-11-13T11:50:12.425Z,101212.23
2018-11-13T11:52:41.368Z,101203.78
2018-11-13T11:55:11.254Z,101205.44
2018-11-13T11:57:40.304Z,101205.91
2018-11-13T12:00:18.781Z,101206.58
2018-11-13T12:02:47.743Z,101200.06
2018-11-13T12:05:16.761Z,101197.05
2018-11-13T12:07:45.874Z,101201.29
2018-11-13T12:10:14.906Z,101197.72
2018-11-13T12:12:43.860Z,101200.50
2018-11-13T12:15:13.696Z,101194.25
2018-11-13T12:17:43.475Z,101193.22
2018-11-13T12:20:13.730Z,101192.94
2018-11-13T12:22:42.873Z,101184.20
2018-11-13T12:25:15.161Z,101184.28
2018-11-13T12:27:44.196Z,101187.48
2018-11-13T12:30:15.605Z,101188.59
2018-11-13T12:32:45.213Z,101188.66
2018-11-13T12:35:15.258Z,101188.09
2018-11-13T12:37:44.204Z,101185.84
2018-11-13T12:40:17.611Z,101188.77
2018-11-13T12:42:47.472Z,101178.22
2018-11-13T12:45:17.104Z,101188.05
2018-11-13T12:47:46.142Z,101188.10
2018-11-13T12:50:16.254Z,101178.34
2018-11-13T12:52:45.214Z,101178.05
2018-11-13T12:55:20.825Z,101181.14
2018-11-13T12:57:49.823Z,101185.58
2018-11-13T13:00:24.258Z,101183.21
2018-11-13T13:02:53.199Z,101179.15
2018-11-13T13:05:22.161Z,101183.22
2018-11-13T13:07:51.105Z,101186.60
2018-11-13T13:10:21.014Z,101184.94
2018-11-13T13:12:50.016Z,101188.33
2018-11-13T13:15:19.342Z,101183.62
2018-11-13T13:17:48.358Z,101185.82
2018-11-13T13:20:20.046Z,101191.06
2018-11-13T13:22:49.804Z,101184.64
2018-11-13T13:25:19.725Z,101185.62
2018-11-13T13:27:48.760Z,101187.58
2018-11-13T13:30:21.917Z,101193.30
2018-11-13T13:32:51.161Z,101187.88
2018-11-13T13:35:55.998Z,101186.73
2018-11-13T13:38:25.133Z,101187.78
2018-11-13T13:40:55.369Z,101185.59
2018-11-13T13:43:24.972Z,101176.81
2018-11-13T13:45:53.973Z,101188.30
2018-11-13T13:48:23.373Z,101181.52
2018-11-13T13:50:52.379Z,101181.19
2018-11-13T13:53:21.993Z,101185.28
2018-11-13T13:55:51.144Z,101180.94
2018-11-13T13:58:21.494Z,101175.88
2018-11-13T14:00:50.854Z,101176.61
2018-11-13T14:03:19.747Z,101182.90
2018-11-13T14:05:48.895Z,101181.67
2018-11-13T14:08:18.401Z,101144.83
2018-11-13T14:10:47.381Z,101180.31
2018-11-13T14:13:16.504Z,101180.98
2018-11-13T14:15:45.467Z,101174.03
2018-11-13T14:18:14.508Z,101180.91
2018-11-13T14:20:43.492Z,101167.36
2018-11-13T14:23:12.464Z,101174.06
2018-11-13T14:25:41.452Z,101175.01
2018-11-13T14:28:10.406Z,101173.78
2018-11-13T14:30:39.481Z,101170.86
2018-11-13T14:33:09.640Z,101169.31
2018-11-13T14:35:38.681Z,101166.04
2018-11-13T14:38:07.760Z,101170.39
2018-11-13T14:40:52.077Z,101164.26
2018-11-13T14:43:21.056Z,101166.60
2018-11-13T14:45:49.991Z,101156.56
2018-11-13T14:48:18.959Z,101166.81
2018-11-13T14:50:47.897Z,101168.00
2018-11-13T14:53:16.915Z,101160.00
2018-11-13T14:55:46.355Z,101164.01
2018-11-13T14:58:16.440Z,101165.93
2018-11-13T15:00:45.422Z,101168.73
2018-11-13T15:03:15.715Z,101182.25
2018-11-13T15:05:44.690Z,101176.02
2018-11-13T15:08:13.683Z,101175.45
2018-11-13T15:10:58.177Z,101179.76
2018-11-13T15:13:27.844Z,101175.27
2018-11-13T15:15:56.845Z,101177.25
2018-11-13T15:18:25.776Z,101184.98
2018-11-13T15:20:54.763Z,101188.73
2018-11-13T15:23:23.708Z,101180.34
2018-11-13T15:25:52.671Z,101186.68
2018-11-13T15:28:21.615Z,101189.45
2018-11-13T15:30:51.104Z,101191.30
2018-11-13T15:33:21.596Z,101202.08
2018-11-13T15:35:50.636Z,101199.27
2018-11-13T15:38:19.701Z,101200.56
2018-11-13T15:40:48.671Z,101197.50
2018-11-13T15:43:17.683Z,101196.42
2018-11-13T15:45:46.638Z,101197.41
2018-11-13T15:48:16.189Z,101196.98
2018-11-13T15:50:45.148Z,101197.56
2018-11-13T15:53:14.221Z,101191.59
2018-11-13T15:55:43.192Z,101196.88
2018-11-13T15:58:12.187Z,101194.23
2018-11-13T16:00:42.037Z,101196.97
2018-11-13T16:03:14.639Z,101198.57
2018-11-13T16:05:47.160Z,101198.61
2018-11-13T16:08:16.151Z,101203.59
2018-11-13T16:10:45.178Z,101203.92
2018-11-13T16:13:14.240Z,101206.58
2018-11-13T16:15:43.709Z,101209.66
2018-11-13T16:18:15.303Z,101210.65
2018-11-13T16:20:44.284Z,101211.95
2018-11-13T16:23:13.978Z,101213.69
2018-11-13T16:25:43.130Z,101219.91
2018-11-13T16:28:12.116Z,101218.45
2018-11-13T16:30:41.356Z,101222.31
2018-11-13T16:33:10.307Z,101226.84
2018-11-13T16:35:39.260Z,101225.10
2018-11-13T16:38:09.674Z,101224.75
2018-11-13T16:40:38.662Z,101224.04
2018-11-13T16:43:07.686Z,101228.64
2018-11-13T16:45:36.737Z,101229.55
2018-11-13T16:48:06.818Z,101227.03
2018-11-13T16:50:37.800Z,101226.82
2018-11-13T16:53:07.173Z,101219.39
2018-11-13T16:55:41.075Z,101222.92
2018-11-13T16:58:11.584Z,101227.95
2018-11-13T17:00:40.635Z,101219.62
2018-11-13T17:03:09.637Z,101212.20
2018-11-13T17:05:38.717Z,101218.08
2018-11-13T17:08:07.599Z,101213.50
2018-11-13T17:10:39.483Z,101214.48
2018-11-13T17:13:08.481Z,101208.67
2018-11-13T17:15:37.502Z,101209.36
2018-11-13T17:18:06.903Z,101215.45
2018-11-13T17:20:36.001Z,101208.95
2018-11-13T17:23:04.921Z,101214.11
2018-11-13T17:25:35.376Z,101213.75
2018-11-13T17:28:04.351Z,101206.40
2018-11-13T17:30:34.628Z,101203.27
2018-11-13T17:33:04.762Z,101207.08
2018-11-13T17:35:33.739Z,101212.04
2018-11-13T17:38:03.308Z,101204.55
2018-11-13T17:40:34.465Z,101204.20
2018-11-13T17:43:04.900Z,101211.45
2018-11-13T17:45:36.754Z,101201.84
2018-11-13T17:48:06.486Z,101205.52
2018-11-13T17:50:36.590Z,101211.87
2018-11-13T17:53:06.424Z,101212.70
2018-11-13T17:55:35.708Z,101208.58
2018-11-13T17:58:06.497Z,101208.78
2018-11-13T18:00:37.663Z,101206.43
2018-11-13T18:03:07.839Z,101208.66
2018-11-13T18:05:37.126Z,101204.80
2018-11-13T18:08:06.731Z,101204.62
2018-11-13T18:10:36.651Z,101197.94
2018-11-13T18:13:06.367Z,101197.41
2018-11-13T18:15:35.354Z,101195.03
2018-11-13T18:18:04.801Z,101199.00
2018-11-13T18:20:36.190Z,101193.17
2018-11-13T18:23:05.142Z,101195.30
2018-11-13T18:25:34.215Z,101193.63
2018-11-13T18:28:03.627Z,101192.83
2018-11-13T18:30:33.941Z,101191.82
2018-11-13T18:33:03.829Z,101191.34
2018-11-13T18:35:34.418Z,101187.16
2018-11-13T18:38:04.852Z,101194.10
2018-11-13T18:40:33.719Z,101190.38
2018-11-13T18:43:03.498Z,101197.92
2018-11-13T18:45:34.734Z,101195.88
2018-11-13T18:48:03.829Z,101191.16
2018-11-13T18:50:34.155Z,101188.64
2018-11-13T18:53:03.144Z,101195.94
2018-11-13T18:55:32.152Z,101190.22
2018-11-13T18:58:01.741Z,101186.69
2018-11-13T19:00:32.287Z,101192.07
2018-11-13T19:03:02.161Z,101183.55
2018-11-13T19:05:31.119Z,101186.01
2018-11-13T19:08:00.559Z,101191.13
2018-11-13T19:10:36.405Z,101197.45
2018-11-13T19:13:07.442Z,101194.78
2018-11-13T19:15:38.957Z,101189.06
2018-11-13T19:18:08.464Z,101191.88
2018-11-13T19:20:37.438Z,101189.70
2018-11-13T19:23:06.687Z,101195.42
2018-11-13T19:25:36.273Z,101183.76
2018-11-13T19:28:05.212Z,101187.03
2018-11-13T19:30:36.617Z,101185.81
2018-11-13T19:33:05.635Z,101181.69
2018-11-13T19:35:34.835Z,101187.53
2018-11-13T19:38:03.605Z,101186.91
2018-11-13T19:40:33.662Z,101183.50
2018-11-13T19:43:04.123Z,101180.23
2018-11-13T19:45:33.101Z,101182.64
2018-11-13T19:48:02.075Z,101182.52
2018-11-13T19:50:32.420Z,101174.88
2018-11-13T19:53:01.518Z,101174.74
2018-11-13T19:55:31.187Z,101167.09
2018-11-13T19:58:00.165Z,101172.81
2018-11-13T20:00:32.343Z,101169.88
2018-11-13T20:03:02.717Z,101165.40
2018-11-13T20:05:33.030Z,101164.17
2018-11-13T20:08:02.134Z,101160.03
2018-11-13T20:10:32.334Z,101170.98
2018-11-13T20:13:02.642Z,101163.56
2018-11-13T20:15:32.377Z,101167.56
2018-11-13T20:18:01.412Z,101168.03
2018-11-13T20:20:31.617Z,101170.44
2018-11-13T20:23:01.695Z,101164.39
2018-11-13T20:25:31.794Z,101160.47
2018-11-13T20:28:00.821Z,101163.02
2018-11-13T20:30:38.336Z,101165.80
2018-11-13T20:33:07.497Z,101168.00
2018-11-13T20:35:36.537Z,101171.15
2018-11-13T20:38:05.966Z,101177.45
2018-11-13T20:40:36.066Z,101168.22
2018-11-13T20:43:06.571Z,101165.55
2018-11-13T20:45:35.579Z,101160.65
2018-11-13T20:48:04.597Z,101163.32
2018-11-13T20:50:34.570Z,101161.80
2018-11-13T20:53:04.075Z,101158.53
2018-11-13T20:55:33.047Z,101158.64
2018-11-13T20:58:02.165Z,101158.27
2018-11-13T21:00:33.391Z,101156.56
2018-11-13T21:03:02.385Z,101161.91
2018-11-13T21:05:31.474Z,101157.80
2018-11-13T21:08:00.461Z,101150.86
2018-11-13T21:10:37.900Z,101156.31
2018-11-13T21:13:07.604Z,101154.16
2018-11-13T21:15:36.649Z,101147.22
2018-11-13T21:18:05.663Z,101150.38
2018-11-13T21:20:34.725Z,101144.07
2018-11-13T21:23:03.676Z,101146.95
2018-11-13T21:25:32.640Z,101151.70
2018-11-13T21:28:02.490Z,101155.70
2018-11-13T21:30:31.552Z,101151.70
2018-11-13T21:33:00.520Z,101143.55
2018-11-13T21:35:29.455Z,101147.06
2018-11-13T21:37:58.725Z,101139.16
2018-11-13T21:40:28.418Z,101129.17
2018-11-13T21:42:57.881Z,101127.84
2018-11-13T21:45:27.669Z,101128.55
2018-11-13T21:47:56.633Z,101119.73
2018-11-13T21:50:27.009Z,101120.59
2018-11-13T21:52:55.938Z,101113.66
2018-11-13T21:55:26.142Z,101114.61
2018-11-13T21:57:55.115Z,101109.50
2018-11-13T22:00:27.990Z,101108.73
2018-11-13T22:02:58.978Z,101109.92
2018-11-13T22:05:29.104Z,101110.17
2018-11-13T22:07:58.142Z,101116.31
2018-11-13T22:10:27.110Z,101121.64
2018-11-13T22:12:56.067Z,101118.23
2018-11-13T22:15:26.122Z,101117.14
2018-11-13T22:17:56.050Z,101117.86
2018-11-13T22:20:25.531Z,101114.11
2018-11-13T22:22:55.767Z,101113.73
2018-11-13T22:25:25.668Z,101110.32
2018-11-13T22:27:55.902Z,101112.40
2018-11-13T22:30:26.168Z,101112.61
2018-11-13T22:32:55.139Z,101104.49
2018-11-13T22:35:24.477Z,101110.05
2018-11-13T22:37:53.440Z,101100.25
2018-11-13T22:40:24.330Z,101098.70
2018-11-13T22:42:53.361Z,101099.70
2018-11-13T22:45:23.567Z,101097.27
2018-11-13T22:47:52.863Z,101105.05
2018-11-13T22:50:23.170Z,101093.05
2018-11-13T22:52:52.592Z,101095.34
2018-11-13T22:55:21.634Z,101089.05
2018-11-13T22:57:52.284Z,101083.72
2018-11-13T23:00:23.942Z,101087.13
2018-11-13T23:02:54.053Z,101079.35
2018-11-13T23:05:23.017Z,101083.34
2018-11-13T23:07:51.975Z,101071.71
2018-11-13T23:10:20.962Z,101076.78
2018-11-13T23:12:49.943Z,101071.82
2018-11-13T23:15:20.516Z,101069.63
2018-11-13T23:17:49.496Z,101066.48
2018-11-13T23:20:19.723Z,101069.27
2018-11-13T23:22:48.662Z,101063.82
2018-11-13T23:25:18.774Z,101068.05
2018-11-13T23:27:48.776Z,101060.20
2018-11-13T23:30:20.560Z,101061.75
2018-11-13T23:32:49.965Z,101058.86
2018-11-13T23:35:19.132Z,101053.16
2018-11-13T23:37:49.465Z,101051.67
2018-11-13T23:40:19.852Z,101043.66
2018-11-13T23:42:49.247Z,101039.14
2018-11-13T23:45:19.499Z,101041.70
2018-11-13T23:47:49.006Z,101043.55
2018-11-13T23:50:18.021Z,101038.34
2018-11-13T23:52:47.903Z,101038.22
2018-11-13T23:55:17.284Z,101036.14
2018-11-13T23:57:46.886Z,101031.41
